< < Back
Terminal Aerodrome Forecast


Current Version              Previous Versions:   1  2  3  4  5  6  7  8  9  

Terminal Aerodrome Forecast

228
FTUS42 KGSP 241732
TAFHKY
TAF
KHKY 241732Z 2418/2518 21003KT P6SM BKN170
     FM250200 00000KT P6SM FEW200
     FM250600 00000KT P6SM SKC=

Latest METAR

255
SAUS70 KWBC 250500 RRG
MTRHKY
METAR KHKY 250453Z AUTO 30005KT 10SM CLR 08/07 A3002 RMK AO2 SLP151
T00830067 402000056


USA.gov is the U.S. government's official web portal to all federal, state and local government web resources and services.